PABT/BTT METAR and TAF weather

Enter ICAO airport designator
Station Type Date Time Source
PABT METAR 2019/06/26 05:53 UTC NOAA

PABT 260553Z 32005KT 10SM FEW200 21/M01 A3006 RMK AO2 SLP184 T02111006 10228 20211 53005


Station Type Date Time Source
PABT Decoded METAR 2019/06/26 05:53 UTC NOAA

BETTLES AIRPORT, AK, United States (PABT) 66-54N 151-31W 196M
Jun 26, 2019 - 01:53 AM EDT / 2019.06.26 0553 UTC
Wind: from the NW (320 degrees) at 6 MPH (5 KT):0
Visibility: 10 mile(s):0
Sky conditions: mostly clear
Temperature: 70.0 F (21.1 C)
Dew Point: 30.9 F (-0.6 C)
Relative Humidity: 23%
Pressure (altimeter): 30.06 in. Hg (1017 hPa)
Pressure tendency: 0.01 inches (0.5 hPa) higher than three hours ago
ob: PABT 260553Z 32005KT 10SM FEW200 21/M01 A3006 RMK AO2 SLP184 T02111006 10228 20211 53005
cycle: 6

Station Type Date Time Source
PABT TAF 2019/06/26 06:42 UTC NOAA

TAF PABT 260539Z 2606/2706 35004KT P6SM FEW200

Example: see airport list